Weather observations for the past three days for
Hobart, Hobart Municipal Airport
Metric (Imperial)
Date Time (cdt) Wind (kph) Vis. (km) Weather Sky Cond. Temperature (ºC) Relative Humidity Wind Chill (°C) Heat Index (°C) Pressure Precipitation (cm)
Air Dwpt 6 hour altimeter (cm) sea level (mb) 1 hr 3 hr 6 hr
Max. Min.
05 17:53 S 19 G 33 16.09 Fair CLR 37.8 14.4 25% 38 75.87 1009.0
05 16:53 S 26 G 41 16.09 Fair CLR 38.3 15 25% 38 75.9 1009.2
05 15:53 S 19 G 35 16.09 Fair CLR 38.3 15.6 26% 39 75.95 1010.1
05 12:53 S 13 G 31 16.09 Fair CLR 36.1 17.2 36.1 23.9 33% 37 76.12 1012.3
05 11:53 S 20 G 37 16.09 Fair CLR 35 17.8 36% 36 76.15 1012.7
05 10:53 SW 20 16.09 Fair CLR 33.3 18.3 41% 34 76.15 1012.7
05 09:53 SW 20 16.09 Fair CLR 31.1 18.3 46% 32 76.15 1012.9
05 08:53 S 20 16.09 Fair CLR 28.3 18.9 57% 30 76.15 1012.9
05 07:53 S 9 16.09 Fair CLR 25 18.3 66% 26 76.15 1012.7
05 06:53 S 11 16.09 Fair CLR 24.4 17.8 28.9 24.4 67% 25 76.1 1012.3
05 04:53 S 7 16.09 Fair CLR 25 17.8 64% 26 76.1 1012.0
05 03:53 S 11 16.09 Fair CLR 26.7 17.8 58% 28 76.07 1011.7
05 02:53 S 19 16.09 Fair CLR 28.3 17.8 53% 29 76.05 1011.3
05 01:53 S 17 16.09 Fair CLR 28.9 17.8 51% 30 76.05 1011.2
05 00:53 S 11 16.09 Fair CLR 29.4 17.2 37.8 29.4 48% 30 76.05 1011.4
04 23:53 S 15 16.09 Fair CLR 30.6 17.2 45% 31 76.05 1011.5
04 22:53 S 24 16.09 Fair CLR 31.7 16.7 41% 32 76.02 1011.2
04 21:53 S 31 G 44 16.09 Fair CLR 32.8 17.2 39% 33 75.97 1010.5
04 20:53 S 30 G 41 16.09 Fair CLR 33.9 17.8 38% 35 75.9 1009.4
04 19:53 S 22 16.09 Fair CLR 36.1 17.2 33% 37 75.84 1008.8
04 18:53 SE 22 16.09 Fair CLR 37.8 16.7 39.4 34.4 29% 39 75.82 1008.4
04 17:53 SE 28 G 56 16.09 Fair CLR 38.9 16.7 27% 40 75.79 1008.1
04 16:53 S 20 G 31 16.09 Fair CLR 38.9 17.2 28% 40 75.82 1008.4
04 15:53 SE 19 G 35 16.09 Fair CLR 38.9 18.3 30% 41 75.87 1009.0
04 14:53 S 24 G 37 16.09 Fair CLR 37.8 18.3 32% 40 75.92 1009.8
04 13:53 S 15 G 33 16.09 Fair CLR 36.7 19.4 36% 39 75.97 1010.3
04 12:53 S 11 16.09 Fair CLR 35 19.4 35 23.9 40% 37 76.02 1011.2
04 11:53 S 22 G 35 16.09 Fair CLR 33.3 20 46% 36 76.07 1011.8
04 10:53 S 26 G 43 16.09 Fair CLR 31.1 21.1 55% 34 76.07 1011.8
04 09:53 S 24 16.09 Fair CLR 28.9 21.1 63% 31 76.05 1011.7
04 08:53 S 22 16.09 Fair CLR 26.7 21.1 71% 28 76.05 1011.7
04 07:53 S 17 16.09 Fair CLR 24.4 20.6 79% 25 76.02 1011.2
04 06:53 S 19 16.09 Fair CLR 24.4 20 27.8 24.4 77% 25 76 1010.7
04 05:53 S 15 16.09 Fair CLR 25 20 74% 26 75.97 1010.4
04 04:53 S 20 16.09 Fair CLR 25 20 74% 26 75.95 1010.2
04 03:53 S 22 16.09 Fair CLR 25.6 20 71% 27 75.95 1010.0
04 02:53 S 30 G 43 16.09 Fair CLR 26.7 20.6 69% 28 75.95 1010.0
04 01:53 S 30 G 41 16.09 Fair CLR 27.2 21.1 69% 29 75.97 1010.2
04 00:53 S 37 G 48 16.09 Fair and Breezy CLR 27.8 21.1 37.2 27.8 67% 30 75.95 1010.0
03 23:53 SE 30 G 48 16.09 Fair CLR 28.3 21.1 65% 31 75.95 1010.0
03 22:53 SE 28 G 41 16.09 Fair CLR 29.4 21.1 61% 32 75.97 1010.4
03 21:53 SE 28 G 43 16.09 Fair CLR 31.1 20 52% 33 75.92 1009.7
03 20:53 SE 22 16.09 Fair CLR 33.3 17.2 38% 34 75.84 1008.9
03 19:53 SE 24 16.09 Fair CLR 35 17.2 35% 36 75.82 1008.3
03 18:53 S 24 G 37 16.09 Fair CLR 37.2 17.2 39.4 36.1 31% 38 75.77 1007.7
03 17:53 S 31 G 43 16.09 Fair CLR 38.3 16.7 28% 39 75.74 1007.2
03 16:53 SE 17 16.09 Fair CLR 38.9 17.2 28% 40 75.77 1007.5
03 15:53 S 17 G 31 16.09 Fair CLR 38.9 17.2 28% 40 75.82 1008.3
03 14:53 S 17 16.09 Fair CLR 38.9 17.8 29% 41 75.87 1009.0
03 13:53 S 20 G 35 16.09 Fair CLR 37.8 18.3 32% 40 75.92 1009.7
03 12:53 SW 24 G 33 16.09 Fair CLR 36.1 18.9 36.1 25 36% 38 76 1010.5
03 11:53 S 22 G 35 16.09 Fair CLR 34.4 18.9 40% 36 76.02 1011.1
03 10:53 SE 20 G 33 16.09 Fair CLR 31.7 19.4 48% 33 76.05 1011.5
03 09:53 SE 22 16.09 Fair CLR 30 19.4 53% 32 76.07 1011.8
03 08:53 S 19 G 30 16.09 Fair CLR 27.8 19.4 60% 29 76.1 1012.1
03 07:53 SE 9 16.09 Fair CLR 25.6 19.4 69% 27 76.07 1011.9
03 06:53 S 20 16.09 Fair CLR 25 18.9 29.4 25 69% 26 76.05 1011.5
03 05:53 S 15 16.09 Fair CLR 25.6 18.9 67% 27 76.05 1011.6
03 04:53 S 19 16.09 Fair CLR 26.7 18.3 60% 28 76.05 1011.4
03 03:53 S 22 16.09 Fair CLR 27.8 18.3 56% 29 76.07 1011.5
03 02:53 S 22 G 37 16.09 Fair CLR 28.3 18.3 55% 29 76.05 1011.5
03 01:53 S 26 G 41 16.09 Fair CLR 28.9 17.8 51% 30 76.05 1011.2
03 00:53 S 22 16.09 Fair CLR 29.4 17.2 37.8 29.4 48% 30 76.02 1011.0
02 23:53 S 31 G 41 16.09 Fair CLR 30.6 17.2 45% 31 76.02 1010.9
02 22:53 SE 26 G 44 16.09 Fair CLR 31.7 16.7 41% 32 76 1010.8
02 21:53 SE 28 16.09 Fair CLR 33.3 15.6 34% 33 76 1010.6
02 20:53 S 20 16.09 Fair CLR 33.9 15 32% 34 75.95 1010.2
02 19:53 S 19 16.09 Fair CLR 35.6 13.9 27% 35 75.92 1009.7
02 18:53 S 20 16.09 Fair CLR 37.8 13.3 39.4 36.7 23% 37 75.9 1009.6
Date Time (cdt) Wind (kph) Vis. (km) Weather Sky Cond. Air Dwpt Max. Min. Relative Humidity Wind Chill (°C) Heat Index (°C) altimeter (cm) sea level (mb) 1 hr 3 hr 6 hr
6 hour
Temperature (ºC) Pressure Precipitation (cm)